Logan, Illinois
Current Conditions -  °F | °C
As of 11:30 PM on Sunday 21 Dec 2014 (Local Time) from KMWA Reporting Station
Overcast Overcast  
Wind Chill: 36°   Ceiling: 7500
Heat Index: 39°   Visibility: 10mi
Dew Point: 30°   Wind: 5mph
Humidity: 70%   Direction: 90°E
Pressure: 29.97"   Gusts: NA
Location:  37.96°N, 88.84°W
Report Text: KMWA 220530Z AUTO 09004KT 10SM OVC075 04/M01 A2997 RMK AO2
Loading
Personal Weather Stations






























Interactive Weather Map New forecast layout! Learn more

10-Day Weather Forecast

Advertisements
Track Severe Weather on mobile